sensor_id;sensor_type;location;lat;lon;timestamp;temperature;humidity
70051;SHT30;57391;51.306;22.680;2022-08-19T00:00:37;21.72;75.72
70051;SHT30;57391;51.306;22.680;2022-08-19T00:03:06;21.70;76.25
70051;SHT30;57391;51.306;22.680;2022-08-19T00:05:33;21.72;76.47
70051;SHT30;57391;51.306;22.680;2022-08-19T00:08:01;21.74;76.52
70051;SHT30;57391;51.306;22.680;2022-08-19T00:10:30;21.74;76.56
70051;SHT30;57391;51.306;22.680;2022-08-19T06:10:40;31.05;53.73
70051;SHT30;57391;51.306;22.680;2022-08-19T06:13:08;31.57;52.46
70051;SHT30;57391;51.306;22.680;2022-08-19T06:15:35;32.06;51.21
70051;SHT30;57391;51.306;22.680;2022-08-19T06:18:02;32.06;51.12
70051;SHT30;57391;51.306;22.680;2022-08-19T06:20:30;31.69;51.40
70051;SHT30;57391;51.306;22.680;2022-08-19T06:22:58;31.35;51.99
70051;SHT30;57391;51.306;22.680;2022-08-19T06:25:26;31.08;52.07
70051;SHT30;57391;51.306;22.680;2022-08-19T06:27:53;30.81;52.57
70051;SHT30;57391;51.306;22.680;2022-08-19T06:30:20;30.88;52.37
70051;SHT30;57391;51.306;22.680;2022-08-19T06:32:47;31.39;51.54
70051;SHT30;57391;51.306;22.680;2022-08-19T06:35:14;31.89;50.79
70051;SHT30;57391;51.306;22.680;2022-08-19T06:37:41;32.30;49.73
70051;SHT30;57391;51.306;22.680;2022-08-19T06:40:09;32.59;49.32
70051;SHT30;57391;51.306;22.680;2022-08-19T06:42:39;32.96;48.84
70051;SHT30;57391;51.306;22.680;2022-08-19T06:45:06;33.37;48.48
70051;SHT30;57391;51.306;22.680;2022-08-19T06:47:34;33.76;47.42
70051;SHT30;57391;51.306;22.680;2022-08-19T06:50:02;34.02;46.78
70051;SHT30;57391;51.306;22.680;2022-08-19T06:52:31;34.17;46.43
70051;SHT30;57391;51.306;22.680;2022-08-19T06:55:02;34.02;46.12
70051;SHT30;57391;51.306;22.680;2022-08-19T06:57:30;33.53;47.19
70051;SHT30;57391;51.306;22.680;2022-08-19T06:59:59;33.22;47.31
70051;SHT30;57391;51.306;22.680;2022-08-19T07:02:26;32.92;48.02
70051;SHT30;57391;51.306;22.680;2022-08-19T07:04:53;32.83;48.62
70051;SHT30;57391;51.306;22.680;2022-08-19T07:07:23;32.79;47.85
70051;SHT30;57391;51.306;22.680;2022-08-19T07:09:50;32.77;46.64
70051;SHT30;57391;51.306;22.680;2022-08-19T07:12:19;32.58;46.40
70051;SHT30;57391;51.306;22.680;2022-08-19T07:14:46;32.56;46.95
70051;SHT30;57391;51.306;22.680;2022-08-19T07:17:14;32.64;46.32
70051;SHT30;57391;51.306;22.680;2022-08-19T07:19:42;32.75;46.47
70051;SHT30;57391;51.306;22.680;2022-08-19T07:22:09;32.91;45.77
70051;SHT30;57391;51.306;22.680;2022-08-19T07:24:37;33.07;45.95
70051;SHT30;57391;51.306;22.680;2022-08-19T07:27:05;33.23;45.08
70051;SHT30;57391;51.306;22.680;2022-08-19T07:29:34;33.41;45.11
70051;SHT30;57391;51.306;22.680;2022-08-19T07:32:03;33.71;45.21
70051;SHT30;57391;51.306;22.680;2022-08-19T07:34:31;34.12;44.84
70051;SHT30;57391;51.306;22.680;2022-08-19T07:37:06;34.53;43.51
70051;SHT30;57391;51.306;22.680;2022-08-19T07:39:34;34.85;42.93
70051;SHT30;57391;51.306;22.680;2022-08-19T07:42:06;34.97;41.72
70051;SHT30;57391;51.306;22.680;2022-08-19T07:44:36;34.96;41.71
70051;SHT30;57391;51.306;22.680;2022-08-19T07:47:04;34.73;40.78
70051;SHT30;57391;51.306;22.680;2022-08-19T07:49:33;34.34;40.75
70051;SHT30;57391;51.306;22.680;2022-08-19T07:52:02;33.98;41.77
70051;SHT30;57391;51.306;22.680;2022-08-19T07:54:36;33.70;42.35
70051;SHT30;57391;51.306;22.680;2022-08-19T07:57:05;33.67;42.88
70051;SHT30;57391;51.306;22.680;2022-08-19T07:59:33;33.81;43.41
70051;SHT30;57391;51.306;22.680;2022-08-19T08:02:02;33.98;42.43
70051;SHT30;57391;51.306;22.680;2022-08-19T08:04:30;33.97;42.18
70051;SHT30;57391;51.306;22.680;2022-08-19T08:07:17;34.09;42.69
70051;SHT30;57391;51.306;22.680;2022-08-19T08:10:04;34.37;42.20
70051;SHT30;57391;51.306;22.680;2022-08-19T08:12:35;34.66;41.36
70051;SHT30;57391;51.306;22.680;2022-08-19T08:15:11;34.77;40.21
70051;SHT30;57391;51.306;22.680;2022-08-19T08:17:45;34.92;40.09
70051;SHT30;57391;51.306;22.680;2022-08-19T08:20:13;35.07;40.05
70051;SHT30;57391;51.306;22.680;2022-08-19T08:22:44;35.18;40.09
70051;SHT30;57391;51.306;22.680;2022-08-19T08:25:33;35.29;39.66
70051;SHT30;57391;51.306;22.680;2022-08-19T08:28:02;35.47;39.52
70051;SHT30;57391;51.306;22.680;2022-08-19T08:30:31;35.75;38.76
70051;SHT30;57391;51.306;22.680;2022-08-19T08:33:03;35.89;38.35
70051;SHT30;57391;51.306;22.680;2022-08-19T08:35:30;36.04;38.06
70051;SHT30;57391;51.306;22.680;2022-08-19T08:37:57;36.12;38.48
70051;SHT30;57391;51.306;22.680;2022-08-19T08:40:39;36.22;37.68
70051;SHT30;57391;51.306;22.680;2022-08-19T08:46:06;35.87;36.30
70051;SHT30;57391;51.306;22.680;2022-08-19T08:51:21;35.70;37.00
70051;SHT30;57391;51.306;22.680;2022-08-19T08:54:18;35.56;36.69
70051;SHT30;57391;51.306;22.680;2022-08-19T08:56:50;35.36;36.85
70051;SHT30;57391;51.306;22.680;2022-08-19T08:59:28;35.21;37.32
70051;SHT30;57391;51.306;22.680;2022-08-19T09:02:00;35.09;37.25
70051;SHT30;57391;51.306;22.680;2022-08-19T09:04:28;34.94;36.77
70051;SHT30;57391;51.306;22.680;2022-08-19T09:10:37;34.60;36.74
70051;SHT30;57391;51.306;22.680;2022-08-19T09:16:11;34.48;36.55
70051;SHT30;57391;51.306;22.680;2022-08-19T09:18:48;34.46;36.19
70051;SHT30;57391;51.306;22.680;2022-08-19T09:21:22;34.44;36.61
70051;SHT30;57391;51.306;22.680;2022-08-19T09:23:51;34.58;37.21
70051;SHT30;57391;51.306;22.680;2022-08-19T09:26:20;34.63;36.08
70051;SHT30;57391;51.306;22.680;2022-08-19T09:28:50;34.60;35.70
70051;SHT30;57391;51.306;22.680;2022-08-19T09:31:20;34.49;35.61
70051;SHT30;57391;51.306;22.680;2022-08-19T09:33:50;34.37;36.31
70051;SHT30;57391;51.306;22.680;2022-08-19T09:36:19;34.33;36.45
70051;SHT30;57391;51.306;22.680;2022-08-19T09:38:48;34.40;36.50
70051;SHT30;57391;51.306;22.680;2022-08-19T09:41:17;34.45;36.26
70051;SHT30;57391;51.306;22.680;2022-08-19T09:43:48;34.49;36.57
70051;SHT30;57391;51.306;22.680;2022-08-19T09:46:23;34.37;36.25
70051;SHT30;57391;51.306;22.680;2022-08-19T09:48:54;34.25;36.68
70051;SHT30;57391;51.306;22.680;2022-08-19T09:51:25;34.24;36.97
70051;SHT30;57391;51.306;22.680;2022-08-19T09:54:01;34.27;36.46
70051;SHT30;57391;51.306;22.680;2022-08-19T09:56:31;34.26;36.11
70051;SHT30;57391;51.306;22.680;2022-08-19T09:58:59;34.23;36.56
70051;SHT30;57391;51.306;22.680;2022-08-19T10:01:29;34.30;36.29
70051;SHT30;57391;51.306;22.680;2022-08-19T10:03:58;34.44;37.43
70051;SHT30;57391;51.306;22.680;2022-08-19T10:06:29;34.60;37.17
70051;SHT30;57391;51.306;22.680;2022-08-19T10:08:59;34.63;37.14
70051;SHT30;57391;51.306;22.680;2022-08-19T10:11:26;34.63;37.11
70051;SHT30;57391;51.306;22.680;2022-08-19T10:13:54;34.64;37.41
70051;SHT30;57391;51.306;22.680;2022-08-19T10:16:22;34.66;36.30
70051;SHT30;57391;51.306;22.680;2022-08-19T10:18:52;34.67;35.97
70051;SHT30;57391;51.306;22.680;2022-08-19T10:21:27;34.69;36.37
70051;SHT30;57391;51.306;22.680;2022-08-19T10:23:59;34.66;36.21
70051;SHT30;57391;51.306;22.680;2022-08-19T10:26:32;34.58;36.46
70051;SHT30;57391;51.306;22.680;2022-08-19T10:29:04;34.49;36.31
70051;SHT30;57391;51.306;22.680;2022-08-19T10:31:32;34.36;36.58
70051;SHT30;57391;51.306;22.680;2022-08-19T10:34:01;34.29;37.02
70051;SHT30;57391;51.306;22.680;2022-08-19T10:36:30;34.27;37.06
70051;SHT30;57391;51.306;22.680;2022-08-19T10:39:04;34.27;36.90
70051;SHT30;57391;51.306;22.680;2022-08-19T10:41:36;34.30;37.35
70051;SHT30;57391;51.306;22.680;2022-08-19T10:44:06;34.30;36.89
70051;SHT30;57391;51.306;22.680;2022-08-19T10:46:38;34.33;37.05
70051;SHT30;57391;51.306;22.680;2022-08-19T10:49:09;34.41;37.39
70051;SHT30;57391;51.306;22.680;2022-08-19T10:51:38;34.44;37.19
70051;SHT30;57391;51.306;22.680;2022-08-19T10:54:26;34.40;37.15
70051;SHT30;57391;51.306;22.680;2022-08-19T10:57:14;34.31;37.46
70051;SHT30;57391;51.306;22.680;2022-08-19T10:59:42;34.36;37.87
70051;SHT30;57391;51.306;22.680;2022-08-19T11:02:09;34.40;37.32
70051;SHT30;57391;51.306;22.680;2022-08-19T11:04:39;34.39;37.13
70051;SHT30;57391;51.306;22.680;2022-08-19T11:07:07;34.34;37.18
70051;SHT30;57391;51.306;22.680;2022-08-19T11:09:39;34.26;36.79
70051;SHT30;57391;51.306;22.680;2022-08-19T11:12:08;34.27;37.06
70051;SHT30;57391;51.306;22.680;2022-08-19T11:14:39;34.34;37.65
70051;SHT30;57391;51.306;22.680;2022-08-19T11:17:06;34.37;37.28
70051;SHT30;57391;51.306;22.680;2022-08-19T11:19:34;34.43;37.23
70051;SHT30;57391;51.306;22.680;2022-08-19T11:22:02;34.38;36.50
70051;SHT30;57391;51.306;22.680;2022-08-19T11:24:30;34.21;36.70
70051;SHT30;57391;51.306;22.680;2022-08-19T11:27:06;34.15;37.71
70051;SHT30;57391;51.306;22.680;2022-08-19T11:29:39;34.11;36.94
70051;SHT30;57391;51.306;22.680;2022-08-19T11:32:07;34.10;37.22
70051;SHT30;57391;51.306;22.680;2022-08-19T11:34:37;34.16;37.36
70051;SHT30;57391;51.306;22.680;2022-08-19T11:37:05;34.11;37.05
70051;SHT30;57391;51.306;22.680;2022-08-19T11:39:35;34.01;37.21
70051;SHT30;57391;51.306;22.680;2022-08-19T11:42:05;34.03;37.71
70051;SHT30;57391;51.306;22.680;2022-08-19T11:44:53;34.07;37.48
70051;SHT30;57391;51.306;22.680;2022-08-19T11:47:21;34.01;37.32
70051;SHT30;57391;51.306;22.680;2022-08-19T11:49:48;33.89;37.25
70051;SHT30;57391;51.306;22.680;2022-08-19T11:52:16;33.81;37.60
70051;SHT30;57391;51.306;22.680;2022-08-19T11:54:43;33.79;37.21
70051;SHT30;57391;51.306;22.680;2022-08-19T11:57:10;33.67;37.02
70051;SHT30;57391;51.306;22.680;2022-08-19T11:59:37;33.58;37.19
70051;SHT30;57391;51.306;22.680;2022-08-19T12:02:04;33.52;37.63
70051;SHT30;57391;51.306;22.680;2022-08-19T12:04:32;33.44;37.99
70051;SHT30;57391;51.306;22.680;2022-08-19T12:06:59;33.37;37.70
70051;SHT30;57391;51.306;22.680;2022-08-19T12:09:26;33.29;37.98
70051;SHT30;57391;51.306;22.680;2022-08-19T12:11:54;33.25;37.84
70051;SHT30;57391;51.306;22.680;2022-08-19T12:14:21;33.16;38.18
70051;SHT30;57391;51.306;22.680;2022-08-19T12:16:49;33.07;38.32
70051;SHT30;57391;51.306;22.680;2022-08-19T12:19:16;33.02;39.28
70051;SHT30;57391;51.306;22.680;2022-08-19T12:21:43;32.99;38.37
70051;SHT30;57391;51.306;22.680;2022-08-19T12:24:10;32.89;38.50
70051;SHT30;57391;51.306;22.680;2022-08-19T12:26:37;32.82;39.11
70051;SHT30;57391;51.306;22.680;2022-08-19T12:29:05;32.74;38.69
70051;SHT30;57391;51.306;22.680;2022-08-19T12:31:33;32.61;38.97
70051;SHT30;57391;51.306;22.680;2022-08-19T12:34:00;32.53;39.62
70051;SHT30;57391;51.306;22.680;2022-08-19T12:36:28;32.50;39.61
70051;SHT30;57391;51.306;22.680;2022-08-19T12:38:57;32.44;39.19
70051;SHT30;57391;51.306;22.680;2022-08-19T12:41:26;32.39;39.21
70051;SHT30;57391;51.306;22.680;2022-08-19T12:43:53;32.37;40.11
70051;SHT30;57391;51.306;22.680;2022-08-19T12:46:20;32.34;39.52
70051;SHT30;57391;51.306;22.680;2022-08-19T12:48:49;32.29;39.61
70051;SHT30;57391;51.306;22.680;2022-08-19T12:51:17;32.33;40.30
70051;SHT30;57391;51.306;22.680;2022-08-19T12:53:46;32.28;39.41
70051;SHT30;57391;51.306;22.680;2022-08-19T12:56:14;32.24;39.73
70051;SHT30;57391;51.306;22.680;2022-08-19T12:58:41;32.27;40.16
70051;SHT30;57391;51.306;22.680;2022-08-19T13:01:13;32.30;40.31
70051;SHT30;57391;51.306;22.680;2022-08-19T13:03:44;32.31;40.23
70051;SHT30;57391;51.306;22.680;2022-08-19T13:06:13;32.26;39.40
70051;SHT30;57391;51.306;22.680;2022-08-19T13:08:41;32.21;39.72
70051;SHT30;57391;51.306;22.680;2022-08-19T13:11:12;32.20;39.69
70051;SHT30;57391;51.306;22.680;2022-08-19T13:13:43;32.15;40.04
70051;SHT30;57391;51.306;22.680;2022-08-19T13:16:14;32.06;39.70
70051;SHT30;57391;51.306;22.680;2022-08-19T13:18:42;31.98;40.74
70051;SHT30;57391;51.306;22.680;2022-08-19T13:21:13;31.94;41.38
70051;SHT30;57391;51.306;22.680;2022-08-19T13:23:41;31.92;40.24
70051;SHT30;57391;51.306;22.680;2022-08-19T13:26:08;31.87;40.35
70051;SHT30;57391;51.306;22.680;2022-08-19T13:28:38;31.89;41.00
70051;SHT30;57391;51.306;22.680;2022-08-19T13:31:27;31.86;41.08
70051;SHT30;57391;51.306;22.680;2022-08-19T13:34:17;31.77;41.28
70051;SHT30;57391;51.306;22.680;2022-08-19T13:36:53;31.72;41.16
70051;SHT30;57391;51.306;22.680;2022-08-19T13:39:20;31.65;41.41
70051;SHT30;57391;51.306;22.680;2022-08-19T13:41:49;31.59;41.45
70051;SHT30;57391;51.306;22.680;2022-08-19T13:44:17;31.60;42.24
70051;SHT30;57391;51.306;22.680;2022-08-19T13:46:45;31.60;41.88
70051;SHT30;57391;51.306;22.680;2022-08-19T13:49:14;31.55;41.70
70051;SHT30;57391;51.306;22.680;2022-08-19T13:51:42;31.48;41.82
70051;SHT30;57391;51.306;22.680;2022-08-19T13:54:10;31.45;42.02
70051;SHT30;57391;51.306;22.680;2022-08-19T13:56:42;31.42;41.82
70051;SHT30;57391;51.306;22.680;2022-08-19T13:59:12;31.39;41.99
70051;SHT30;57391;51.306;22.680;2022-08-19T14:01:39;31.36;42.44
70051;SHT30;57391;51.306;22.680;2022-08-19T14:04:08;31.31;42.77
70051;SHT30;57391;51.306;22.680;2022-08-19T14:06:35;31.28;42.53
70051;SHT30;57391;51.306;22.680;2022-08-19T14:09:03;31.23;42.45
70051;SHT30;57391;51.306;22.680;2022-08-19T14:11:31;31.18;42.44
70051;SHT30;57391;51.306;22.680;2022-08-19T14:13:58;31.17;43.40
70051;SHT30;57391;51.306;22.680;2022-08-19T14:16:25;31.19;43.28
70051;SHT30;57391;51.306;22.680;2022-08-19T14:18:53;31.21;43.59
70051;SHT30;57391;51.306;22.680;2022-08-19T14:21:21;31.22;43.12
70051;SHT30;57391;51.306;22.680;2022-08-19T14:23:51;31.22;43.62
70051;SHT30;57391;51.306;22.680;2022-08-19T14:26:20;31.21;42.71
70051;SHT30;57391;51.306;22.680;2022-08-19T14:28:48;31.18;43.05
70051;SHT30;57391;51.306;22.680;2022-08-19T14:31:17;31.17;43.31
70051;SHT30;57391;51.306;22.680;2022-08-19T14:33:46;31.16;43.50
70051;SHT30;57391;51.306;22.680;2022-08-19T14:36:14;31.14;44.02
70051;SHT30;57391;51.306;22.680;2022-08-19T14:38:42;31.10;42.62
70051;SHT30;57391;51.306;22.680;2022-08-19T14:41:11;31.02;42.52
70051;SHT30;57391;51.306;22.680;2022-08-19T14:43:46;30.99;43.00
70051;SHT30;57391;51.306;22.680;2022-08-19T14:46:18;30.94;42.78
70051;SHT30;57391;51.306;22.680;2022-08-19T14:48:50;30.90;43.37
70051;SHT30;57391;51.306;22.680;2022-08-19T14:51:19;30.87;43.29
70051;SHT30;57391;51.306;22.680;2022-08-19T14:53:49;30.82;43.20
70051;SHT30;57391;51.306;22.680;2022-08-19T14:56:18;30.77;43.73
70051;SHT30;57391;51.306;22.680;2022-08-19T14:58:49;30.68;43.29
70051;SHT30;57391;51.306;22.680;2022-08-19T15:01:18;30.59;43.31
70051;SHT30;57391;51.306;22.680;2022-08-19T15:03:48;30.53;43.39
70051;SHT30;57391;51.306;22.680;2022-08-19T15:06:19;30.46;43.13
70051;SHT30;57391;51.306;22.680;2022-08-19T15:08:51;30.41;43.53
70051;SHT30;57391;51.306;22.680;2022-08-19T15:11:22;30.37;43.47
70051;SHT30;57391;51.306;22.680;2022-08-19T15:13:54;30.33;43.47
70051;SHT30;57391;51.306;22.680;2022-08-19T15:16:22;30.29;43.52
70051;SHT30;57391;51.306;22.680;2022-08-19T15:18:52;30.25;43.55
70051;SHT30;57391;51.306;22.680;2022-08-19T15:21:23;30.20;43.76
70051;SHT30;57391;51.306;22.680;2022-08-19T15:23:55;30.19;44.10
70051;SHT30;57391;51.306;22.680;2022-08-19T15:26:25;30.16;43.86
70051;SHT30;57391;51.306;22.680;2022-08-19T15:28:53;30.14;44.06
70051;SHT30;57391;51.306;22.680;2022-08-19T15:31:21;30.14;44.34
70051;SHT30;57391;51.306;22.680;2022-08-19T15:33:48;30.09;43.91
70051;SHT30;57391;51.306;22.680;2022-08-19T15:36:15;30.06;43.83
70051;SHT30;57391;51.306;22.680;2022-08-19T15:38:43;30.01;43.88
70051;SHT30;57391;51.306;22.680;2022-08-19T15:41:15;29.96;43.65
70051;SHT30;57391;51.306;22.680;2022-08-19T15:44:02;29.92;44.14
70051;SHT30;57391;51.306;22.680;2022-08-19T15:46:36;29.86;44.18
70051;SHT30;57391;51.306;22.680;2022-08-19T15:49:07;29.84;44.53
70051;SHT30;57391;51.306;22.680;2022-08-19T15:51:38;29.81;44.35
70051;SHT30;57391;51.306;22.680;2022-08-19T15:54:09;29.77;44.58
70051;SHT30;57391;51.306;22.680;2022-08-19T15:56:40;29.73;44.53
70051;SHT30;57391;51.306;22.680;2022-08-19T15:59:25;29.68;44.71
70051;SHT30;57391;51.306;22.680;2022-08-19T16:02:11;29.61;44.67
70051;SHT30;57391;51.306;22.680;2022-08-19T16:04:57;29.58;44.97
70051;SHT30;57391;51.306;22.680;2022-08-19T16:07:43;29.53;44.94
70051;SHT30;57391;51.306;22.680;2022-08-19T16:10:11;29.48;44.72
70051;SHT30;57391;51.306;22.680;2022-08-19T16:12:39;29.43;44.60
70051;SHT30;57391;51.306;22.680;2022-08-19T16:15:08;29.37;44.94
70051;SHT30;57391;51.306;22.680;2022-08-19T16:17:37;29.32;45.73
70051;SHT30;57391;51.306;22.680;2022-08-19T16:20:04;29.27;45.87
70051;SHT30;57391;51.306;22.680;2022-08-19T16:22:34;29.23;46.02
70051;SHT30;57391;51.306;22.680;2022-08-19T16:25:03;29.17;46.51
70051;SHT30;57391;51.306;22.680;2022-08-19T16:27:33;29.11;46.63
70051;SHT30;57391;51.306;22.680;2022-08-19T16:30:02;29.05;46.94
70051;SHT30;57391;51.306;22.680;2022-08-19T16:32:30;28.98;46.87
70051;SHT30;57391;51.306;22.680;2022-08-19T16:34:57;28.93;46.40
70051;SHT30;57391;51.306;22.680;2022-08-19T16:37:25;28.87;46.49
70051;SHT30;57391;51.306;22.680;2022-08-19T16:39:52;28.80;46.49
70051;SHT30;57391;51.306;22.680;2022-08-19T16:42:19;28.72;46.63
70051;SHT30;57391;51.306;22.680;2022-08-19T16:44:47;28.65;46.91
70051;SHT30;57391;51.306;22.680;2022-08-19T16:47:14;28.57;47.03
70051;SHT30;57391;51.306;22.680;2022-08-19T16:49:43;28.47;46.97
70051;SHT30;57391;51.306;22.680;2022-08-19T16:52:10;28.37;47.17
70051;SHT30;57391;51.306;22.680;2022-08-19T16:54:37;28.29;47.49
70051;SHT30;57391;51.306;22.680;2022-08-19T16:57:04;28.21;47.74
70051;SHT30;57391;51.306;22.680;2022-08-19T16:59:32;28.13;48.09
70051;SHT30;57391;51.306;22.680;2022-08-19T17:02:01;28.05;48.46
70051;SHT30;57391;51.306;22.680;2022-08-19T17:04:28;27.95;48.94
70051;SHT30;57391;51.306;22.680;2022-08-19T17:06:55;27.85;49.12
70051;SHT30;57391;51.306;22.680;2022-08-19T17:09:23;27.78;49.43
70051;SHT30;57391;51.306;22.680;2022-08-19T17:11:50;27.69;49.68
70051;SHT30;57391;51.306;22.680;2022-08-19T17:14:17;27.62;49.80
70051;SHT30;57391;51.306;22.680;2022-08-19T17:16:45;27.54;49.99
70051;SHT30;57391;51.306;22.680;2022-08-19T17:19:13;27.46;50.28
70051;SHT30;57391;51.306;22.680;2022-08-19T17:21:40;27.38;50.70
70051;SHT30;57391;51.306;22.680;2022-08-19T17:24:07;27.28;50.79
70051;SHT30;57391;51.306;22.680;2022-08-19T17:26:37;27.19;51.02
70051;SHT30;57391;51.306;22.680;2022-08-19T17:29:04;27.11;51.21
70051;SHT30;57391;51.306;22.680;2022-08-19T17:31:32;27.03;51.37
70051;SHT30;57391;51.306;22.680;2022-08-19T17:34:00;26.98;51.48
70051;SHT30;57391;51.306;22.680;2022-08-19T17:36:29;26.93;51.72
70051;SHT30;57391;51.306;22.680;2022-08-19T17:39:01;26.88;51.93
70051;SHT30;57391;51.306;22.680;2022-08-19T17:41:30;26.83;52.13
70051;SHT30;57391;51.306;22.680;2022-08-19T17:44:00;26.76;52.37
70051;SHT30;57391;51.306;22.680;2022-08-19T17:46:29;26.70;52.59
70051;SHT30;57391;51.306;22.680;2022-08-19T17:48:57;26.63;52.71
70051;SHT30;57391;51.306;22.680;2022-08-19T17:53:58;26.51;53.11
70051;SHT30;57391;51.306;22.680;2022-08-19T17:56:26;26.46;53.27
70051;SHT30;57391;51.306;22.680;2022-08-19T17:58:57;26.39;53.48
70051;SHT30;57391;51.306;22.680;2022-08-19T18:01:24;26.32;53.68
70051;SHT30;57391;51.306;22.680;2022-08-19T18:03:51;26.25;53.94
70051;SHT30;57391;51.306;22.680;2022-08-19T18:06:19;26.19;54.10
70051;SHT30;57391;51.306;22.680;2022-08-19T18:08:46;26.12;54.28
70051;SHT30;57391;51.306;22.680;2022-08-19T18:11:15;26.09;54.47
70051;SHT30;57391;51.306;22.680;2022-08-19T18:13:42;26.04;54.65
70051;SHT30;57391;51.306;22.680;2022-08-19T18:16:10;25.99;54.77
70051;SHT30;57391;51.306;22.680;2022-08-19T18:18:38;25.95;55.03
70051;SHT30;57391;51.306;22.680;2022-08-19T18:21:08;25.90;55.16
70051;SHT30;57391;51.306;22.680;2022-08-19T18:23:36;25.87;55.34
70051;SHT30;57391;51.306;22.680;2022-08-19T18:26:04;25.83;55.48
70051;SHT30;57391;51.306;22.680;2022-08-19T18:28:32;25.78;55.63
70051;SHT30;57391;51.306;22.680;2022-08-19T18:31:00;25.73;55.69
70051;SHT30;57391;51.306;22.680;2022-08-19T18:33:29;25.69;55.86
70051;SHT30;57391;51.306;22.680;2022-08-19T18:35:56;25.66;55.99
70051;SHT30;57391;51.306;22.680;2022-08-19T18:38:23;25.63;56.06
70051;SHT30;57391;51.306;22.680;2022-08-19T18:41:09;25.59;56.17
70051;SHT30;57391;51.306;22.680;2022-08-19T18:43:55;25.55;56.26
70051;SHT30;57391;51.306;22.680;2022-08-19T18:46:41;25.51;56.56
70051;SHT30;57391;51.306;22.680;2022-08-19T18:49:28;25.48;56.72
70051;SHT30;57391;51.306;22.680;2022-08-19T18:51:58;25.45;57.44
70051;SHT30;57391;51.306;22.680;2022-08-19T18:54:29;25.40;57.82
70051;SHT30;57391;51.306;22.680;2022-08-19T18:56:58;25.37;58.15
70051;SHT30;57391;51.306;22.680;2022-08-19T18:59:27;25.35;58.33
70051;SHT30;57391;51.306;22.680;2022-08-19T19:01:55;25.32;58.36
70051;SHT30;57391;51.306;22.680;2022-08-19T19:04:26;25.29;58.47
70051;SHT30;57391;51.306;22.680;2022-08-19T19:07:04;25.26;58.33
70051;SHT30;57391;51.306;22.680;2022-08-19T19:09:34;25.24;58.16
70051;SHT30;57391;51.306;22.680;2022-08-19T19:12:04;25.22;58.57
70051;SHT30;57391;51.306;22.680;2022-08-19T19:14:56;25.19;58.56
70051;SHT30;57391;51.306;22.680;2022-08-19T19:17:24;25.14;58.52
70051;SHT30;57391;51.306;22.680;2022-08-19T19:19:54;25.10;58.90
70051;SHT30;57391;51.306;22.680;2022-08-19T19:22:41;25.05;58.80
70051;SHT30;57391;51.306;22.680;2022-08-19T19:25:10;25.01;58.81
70051;SHT30;57391;51.306;22.680;2022-08-19T19:27:37;24.97;59.07
70051;SHT30;57391;51.306;22.680;2022-08-19T19:30:06;24.92;58.98
70051;SHT30;57391;51.306;22.680;2022-08-19T19:32:35;24.88;59.21
70051;SHT30;57391;51.306;22.680;2022-08-19T19:35:04;24.83;59.42
70051;SHT30;57391;51.306;22.680;2022-08-19T19:37:33;24.79;59.47
70051;SHT30;57391;51.306;22.680;2022-08-19T19:40:01;24.72;59.57
70051;SHT30;57391;51.306;22.680;2022-08-19T19:42:29;24.66;59.82
70051;SHT30;57391;51.306;22.680;2022-08-19T19:44:56;24.60;60.00
70051;SHT30;57391;51.306;22.680;2022-08-19T19:47:24;24.54;60.16
70051;SHT30;57391;51.306;22.680;2022-08-19T19:49:53;24.49;60.34
70051;SHT30;57391;51.306;22.680;2022-08-19T19:52:43;24.42;60.55
70051;SHT30;57391;51.306;22.680;2022-08-19T19:55:12;24.35;60.74
70051;SHT30;57391;51.306;22.680;2022-08-19T19:57:44;24.29;60.99
70051;SHT30;57391;51.306;22.680;2022-08-19T20:00:15;24.24;61.24
70051;SHT30;57391;51.306;22.680;2022-08-19T20:02:44;24.15;61.49
70051;SHT30;57391;51.306;22.680;2022-08-19T20:05:13;24.07;61.76
70051;SHT30;57391;51.306;22.680;2022-08-19T20:07:40;23.99;62.10
70051;SHT30;57391;51.306;22.680;2022-08-19T20:10:26;23.92;62.38
70051;SHT30;57391;51.306;22.680;2022-08-19T20:12:54;23.86;62.52
70051;SHT30;57391;51.306;22.680;2022-08-19T20:15:22;23.83;62.60
70051;SHT30;57391;51.306;22.680;2022-08-19T20:17:50;23.81;62.66
70051;SHT30;57391;51.306;22.680;2022-08-19T20:20:17;23.79;62.81
70051;SHT30;57391;51.306;22.680;2022-08-19T20:22:45;23.74;63.00
70051;SHT30;57391;51.306;22.680;2022-08-19T20:25:14;23.70;63.04
70051;SHT30;57391;51.306;22.680;2022-08-19T20:27:43;23.66;63.20
70051;SHT30;57391;51.306;22.680;2022-08-19T20:30:12;23.62;63.39
70051;SHT30;57391;51.306;22.680;2022-08-19T20:32:44;23.59;63.80
70051;SHT30;57391;51.306;22.680;2022-08-19T20:35:18;23.58;64.01
70051;SHT30;57391;51.306;22.680;2022-08-19T20:37:47;23.58;64.00
70051;SHT30;57391;51.306;22.680;2022-08-19T20:40:17;23.58;64.03
70051;SHT30;57391;51.306;22.680;2022-08-19T20:42:44;23.58;64.01
70051;SHT30;57391;51.306;22.680;2022-08-19T20:45:13;23.57;64.22
70051;SHT30;57391;51.306;22.680;2022-08-19T20:47:43;23.53;64.50
70051;SHT30;57391;51.306;22.680;2022-08-19T20:50:10;23.50;64.59
70051;SHT30;57391;51.306;22.680;2022-08-19T20:52:37;23.46;64.71
70051;SHT30;57391;51.306;22.680;2022-08-19T20:55:04;23.38;64.87
70051;SHT30;57391;51.306;22.680;2022-08-19T20:57:32;23.26;65.17
70051;SHT30;57391;51.306;22.680;2022-08-19T21:00:00;23.15;65.44
70051;SHT30;57391;51.306;22.680;2022-08-19T21:02:32;23.05;65.67
70051;SHT30;57391;51.306;22.680;2022-08-19T21:04:59;22.97;65.86
70051;SHT30;57391;51.306;22.680;2022-08-19T21:07:26;22.92;66.08
70051;SHT30;57391;51.306;22.680;2022-08-19T21:09:54;22.85;66.21
70051;SHT30;57391;51.306;22.680;2022-08-19T21:12:21;22.82;66.40
70051;SHT30;57391;51.306;22.680;2022-08-19T21:14:48;22.82;66.72
70051;SHT30;57391;51.306;22.680;2022-08-19T21:17:15;22.81;66.76
70051;SHT30;57391;51.306;22.680;2022-08-19T21:19:42;22.82;66.67
70051;SHT30;57391;51.306;22.680;2022-08-19T21:22:09;22.82;66.70
70051;SHT30;57391;51.306;22.680;2022-08-19T21:24:36;22.81;66.77
70051;SHT30;57391;51.306;22.680;2022-08-19T21:27:04;22.81;66.71
70051;SHT30;57391;51.306;22.680;2022-08-19T21:29:31;22.78;66.76
70051;SHT30;57391;51.306;22.680;2022-08-19T21:32:02;22.77;66.83
70051;SHT30;57391;51.306;22.680;2022-08-19T21:34:30;22.75;66.90
70051;SHT30;57391;51.306;22.680;2022-08-19T21:36:57;22.71;67.00
70051;SHT30;57391;51.306;22.680;2022-08-19T21:39:25;22.70;67.12
70051;SHT30;57391;51.306;22.680;2022-08-19T21:41:52;22.66;67.21
70051;SHT30;57391;51.306;22.680;2022-08-19T21:44:19;22.65;67.41